Time;durP1;ratioP1;P1;durP2;ratioP2;P2;SDS_P1;SDS_P2;PMS_P1;PMS_P2;Temp;Humidity;BMP_temperature;BMP_pressure;BME280_temperature;BME280_humidity;BME280_pressure;Samples;Min_cycle;Max_cycle;Signal;HPM_P1;HPM_P2
2022/12/16 00:01:12;;;;;;;;;;;2.00;87.20;;;-151.14;100.00;62537.16;4998744;28;19928;-81
2022/12/16 00:03:40;;;;;;;;;;;2.00;87.30;;;-151.14;100.00;62537.16;5032309;28;19921;-81
2022/12/16 00:06:08;;;;;;;;;;;2.00;87.20;;;-151.14;100.00;62537.16;5032144;28;19927;-81
2022/12/16 00:08:37;;;;;;;;;;;2.00;87.30;;;-151.14;100.00;62537.16;5014773;28;20102;-81
2022/12/16 00:11:05;;;;;;;;;;;2.00;87.20;;;;;;5015085;28;19922;-81
2022/12/16 00:13:33;;;;;;;;;;;2.00;87.20;;;-151.14;100.00;62537.16;5014476;28;19935;-81
2022/12/16 00:16:04;;;;;;;;;;;2.00;87.30;;;0.61;100.00;62537.16;5014618;28;20223;-81
2022/12/16 00:18:34;;;;;;;;;;;2.00;87.20;;;-151.14;100.00;62537.16;5017973;28;19950;-81
2022/12/16 00:21:02;;;;;;;;;;;2.00;87.20;;;-151.14;100.00;62537.16;5034497;28;20209;-81
2022/12/16 00:23:30;;;;;;;;;;;2.00;87.20;;;-151.14;100.00;62537.16;5034017;28;19920;-80
2022/12/16 00:25:58;;;;;;;;;;;2.00;87.30;;;-151.14;100.00;62537.16;5033998;28;19927;-81
2022/12/16 00:28:26;;;;;;;;;;;2.00;87.20;;;-151.14;100.00;62537.16;5034172;28;19921;-81
2022/12/16 00:30:54;;;;;;;;;;;2.00;87.20;;;-151.14;100.00;62537.16;5034323;28;19920;-81
2022/12/16 00:33:23;;;;;;;;;;;2.00;87.40;;;-151.14;100.00;62537.16;5033813;28;20204;-81
2022/12/16 00:35:53;;;;;;;;;;;2.00;87.40;;;0.59;100.00;62537.16;5033646;28;19921;-81
2022/12/16 00:38:21;;;;;;;;;;;2.00;87.40;;;-151.14;100.00;62537.16;5033929;28;19925;-81
2022/12/16 00:40:49;;;;;;;;;;;2.00;87.40;;;-151.14;100.00;62537.16;5017641;28;19920;-81
2022/12/16 00:43:16;;;;;;;;;;;2.00;87.60;;;-151.14;100.00;62537.16;5050628;28;19920;-81
2022/12/16 00:45:45;;;;;;;;;;;2.00;87.50;;;-151.14;100.00;62537.16;5033550;28;19928;-81
2022/12/16 00:48:13;;;;;;;;;;;2.00;87.70;;;-151.14;100.00;62537.16;5017862;28;19921;-81
2022/12/16 00:50:41;;;;;;;;;;;2.00;87.70;;;-151.14;100.00;62537.16;5033987;28;19927;-81
2022/12/16 00:53:10;;;;;;;;;;;2.00;87.70;;;-151.14;100.00;62537.16;5017725;28;19940;-80
2022/12/16 00:55:38;;;;;;;;;;;2.00;87.70;;;-151.14;100.00;62537.16;5033759;28;20111;-81
2022/12/16 00:58:06;;;;;;;;;;;2.00;88.60;;;0.59;100.00;62537.16;5033686;28;19928;-81
2022/12/16 01:00:34;;;;;;;;;;;2.00;87.90;;;-151.14;100.00;62537.16;5050617;28;19921;-81
2022/12/16 01:03:02;;;;;;;;;;;2.00;88.10;;;-151.14;100.00;62537.16;5033048;28;19927;-81
2022/12/16 01:05:30;;;;;;;;;;;2.00;88.00;;;-151.14;100.00;62537.16;5019683;28;19943;-81
2022/12/16 01:07:58;;;;;;;;;;;2.00;88.00;;;-151.14;100.00;62537.16;4997969;28;19921;-81
2022/12/16 01:10:27;;;;;;;;;;;2.00;87.90;;;0.60;100.00;62537.16;5014146;28;19921;-81
2022/12/16 01:12:55;;;;;;;;;;;2.00;87.90;;;-151.14;100.00;62537.16;5031449;28;19921;-81
2022/12/16 01:15:23;;;;;;;;;;;2.00;88.00;;;-151.14;100.00;62537.16;5007938;28;19945;-81
2022/12/16 01:17:51;;;;;;;;;;;2.00;88.10;;;-151.14;100.00;62537.16;5033770;28;20121;-81
2022/12/16 01:20:19;;;;;;;;;;;2.00;88.00;;;-151.14;100.00;62537.16;5033646;28;20120;-81
2022/12/16 01:22:47;;;;;;;;;;;2.00;87.90;;;-151.14;100.00;62537.16;5033300;28;19921;-81
2022/12/16 01:25:16;;;;;;;;;;;2.00;87.90;;;-151.14;100.00;62537.16;5016573;28;19920;-80
2022/12/16 01:27:45;;;;;;;;;;;2.00;87.80;;;-151.14;100.00;62537.16;5033637;28;19920;-81
2022/12/16 01:30:14;;;;;;;;;;;2.00;87.80;;;-151.14;100.00;62537.16;5033524;28;19928;-81
2022/12/16 01:32:42;;;;;;;;;;;2.00;87.90;;;0.60;100.00;62537.16;5016906;28;19927;-81
2022/12/16 01:35:10;;;;;;;;;;;2.00;87.80;;;0.61;100.00;62537.16;5009985;28;20238;-81
2022/12/16 01:37:38;;;;;;;;;;;2.00;87.70;;;-151.14;100.00;62537.16;5013892;28;20120;-81
2022/12/16 01:40:08;;;;;;;;;;;2.00;87.80;;;-151.14;100.00;62537.16;5031223;28;19928;-81
2022/12/16 01:42:36;;;;;;;;;;;2.00;87.80;;;-151.14;100.00;62537.16;5031126;28;19927;-81
2022/12/16 01:45:29;;;;;;;;;;;2.00;87.90;;;-151.14;100.00;62537.16;5013288;28;19921;-81
2022/12/16 01:47:58;;;;;;;;;;;2.00;87.90;;;-151.14;100.00;62537.16;5013679;28;19921;-80
2022/12/16 01:50:26;;;;;;;;;;;2.00;87.70;;;-151.14;100.00;62537.16;4997324;28;19921;-81
2022/12/16 01:52:55;;;;;;;;;;;2.00;87.70;;;-151.14;100.00;62537.16;5013315;28;19921;-81
2022/12/16 01:55:24;;;;;;;;;;;2.00;87.60;;;-151.14;100.00;62537.16;4996776;28;19921;-81
2022/12/16 01:57:54;;;;;;;;;;;2.00;87.60;;;-151.14;100.00;62537.16;4996992;28;19921;-81
2022/12/16 02:00:24;;;;;;;;;;;2.00;87.60;;;-151.14;100.00;62537.16;5013311;28;19921;-81
2022/12/16 02:02:52;;;;;;;;;;;2.00;87.60;;;-151.14;100.00;62537.16;4996799;28;19921;-81
2022/12/16 02:05:20;;;;;;;;;;;2.00;87.50;;;-151.14;100.00;62537.16;5012805;28;19922;-81
2022/12/16 02:07:53;;;;;;;;;;;2.00;87.60;;;-151.14;100.00;62537.16;4996819;28;20124;-81
2022/12/16 02:10:21;;;;;;;;;;;2.00;87.50;;;0.63;100.00;62537.16;4997096;28;19927;-81
2022/12/16 02:12:52;;;;;;;;;;;2.00;87.50;;;-151.14;100.00;62537.16;5013192;28;19922;-81
2022/12/16 02:15:30;;;;;;;;;;;2.00;87.50;;;-151.14;100.00;62537.16;5014167;28;19928;-81
2022/12/16 02:18:01;;;;;;;;;;;2.00;87.50;;;-151.14;100.00;62537.16;5033059;28;20094;-81
2022/12/16 02:20:54;;;;;;;;;;;2.00;87.50;;;0.63;100.00;62537.16;5016600;28;19928;-81
2022/12/16 02:24:07;;;;;;;;;;;2.00;87.60;;;-151.14;100.00;62537.16;5000242;28;20258;-81
2022/12/16 02:26:45;;;;;;;;;;;2.00;87.50;;;-151.14;100.00;62537.16;4989944;28;19927;-81
2022/12/16 02:30:14;;;;;;;;;;;2.00;87.50;;;-151.14;100.00;62537.16;5000097;28;20213;-81
2022/12/16 02:32:53;;;;;;;;;;;2.00;87.60;;;0.61;100.00;62537.16;4937600;29;20145;-81
2022/12/16 02:35:25;;;;;;;;;;;2.00;87.60;;;-151.14;100.00;62537.16;5012810;28;19921;-81
2022/12/16 02:37:56;;;;;;;;;;;2.00;87.60;;;-151.14;100.00;62537.16;5052582;28;19927;-81
2022/12/16 02:40:27;;;;;;;;;;;2.00;87.60;;;0.60;100.00;62537.16;5052490;28;19921;-81
2022/12/16 02:42:56;;;;;;;;;;;2.00;87.60;;;0.61;100.00;81254.13;5035680;28;19921;-80
2022/12/16 02:45:25;;;;;;;;;;;2.00;87.60;;;-151.14;100.00;62537.16;5053264;28;20120;-80
2022/12/16 02:47:54;;;;;;;;;;;2.00;87.60;;;-151.14;100.00;62537.16;5019505;28;19928;-80
2022/12/16 02:50:23;;;;;;;;;;;2.00;87.60;;;-151.14;100.00;62537.16;5035622;28;19921;-80
2022/12/16 02:52:51;;;;;;;;;;;2.00;87.60;;;-151.14;100.00;62537.16;5001369;28;20094;-80
2022/12/16 02:55:19;;;;;;;;;;;2.00;87.40;;;-151.14;100.00;62537.16;4999285;28;19922;-80
2022/12/16 02:58:10;;;;;;;;;;;2.00;87.50;;;-151.14;100.00;62537.16;4999640;28;19922;-80
2022/12/16 03:00:41;;;;;;;;;;;2.00;87.50;;;0.61;100.00;62537.16;4998399;28;19921;-80
2022/12/16 03:03:12;;;;;;;;;;;2.00;87.40;;;-151.14;100.00;62537.16;5034592;28;20208;-80
2022/12/16 03:05:42;;;;;;;;;;;2.00;87.50;;;-151.14;100.00;62537.16;5035528;28;19921;-80
2022/12/16 03:08:12;;;;;;;;;;;2.00;88.30;;;0.61;100.00;62537.16;5035467;28;19927;-81
2022/12/16 03:10:43;;;;;;;;;;;2.00;87.40;;;0.64;100.00;62537.16;5052352;28;19921;-81
2022/12/16 03:13:11;;;;;;;;;;;2.00;87.40;;;0.61;100.00;62537.16;5019057;28;20135;-81
2022/12/16 03:15:39;;;;;;;;;;;2.00;87.40;;;0.62;100.00;62537.16;5018510;28;19931;-80
2022/12/16 03:18:08;;;;;;;;;;;2.00;87.50;;;-151.14;100.00;62537.16;5052088;28;19921;-80
2022/12/16 03:20:40;;;;;;;;;;;2.00;87.40;;;-151.14;100.00;62537.16;5019163;28;19943;-80
2022/12/16 03:23:10;;;;;;;;;;;2.00;87.50;;;-151.14;100.00;62537.16;5019086;28;19921;-80
2022/12/16 03:25:39;;;;;;;;;;;2.00;87.50;;;-151.14;100.00;62537.16;5014627;28;19928;-80
2022/12/16 03:28:11;;;;;;;;;;;2.00;87.40;;;-151.14;100.00;62537.16;5014405;28;19921;-80
2022/12/16 03:30:41;;;;;;;;;;;2.00;87.60;;;-151.14;100.00;62537.16;5035234;28;19921;-80
2022/12/16 03:33:10;;;;;;;;;;;2.00;87.60;;;0.61;100.00;62537.16;5035084;28;20069;-80
2022/12/16 03:35:41;;;;;;;;;;;2.00;87.50;;;-151.14;100.00;62537.16;5051231;28;19921;-80
2022/12/16 03:38:10;;;;;;;;;;;2.00;87.50;;;-151.14;100.00;62537.16;5035104;28;20230;-80
2022/12/16 03:40:38;;;;;;;;;;;2.00;87.50;;;-151.14;100.00;62537.16;5034994;28;19928;-80
2022/12/16 03:43:06;;;;;;;;;;;2.00;87.40;;;0.63;100.00;62537.16;5044761;28;19921;-80
2022/12/16 03:45:36;;;;;;;;;;;2.00;87.50;;;-151.14;100.00;62537.16;5034441;28;20108;-80
2022/12/16 03:48:07;;;;;;;;;;;2.00;87.50;;;-151.14;100.00;62537.16;5035196;28;19951;-80
2022/12/16 03:50:35;;;;;;;;;;;2.00;87.50;;;0.61;100.00;62537.16;5034821;28;19920;-80
2022/12/16 03:53:04;;;;;;;;;;;2.00;87.50;;;-151.14;100.00;62537.16;5026551;28;19921;-80
2022/12/16 03:55:32;;;;;;;;;;;2.00;87.60;;;-151.14;100.00;62537.16;5050989;28;20208;-80
2022/12/16 03:58:00;;;;;;;;;;;2.00;87.50;;;-151.14;100.00;62537.16;5024311;28;19921;-80
2022/12/16 04:00:28;;;;;;;;;;;2.00;87.60;;;-151.14;100.00;62537.16;5014167;28;19927;-81
2022/12/16 04:02:56;;;;;;;;;;;2.00;87.50;;;0.64;100.00;62537.16;5014527;28;20212;-80
2022/12/16 04:05:24;;;;;;;;;;;2.00;87.50;;;-151.14;100.00;62537.16;4997843;28;20217;-80
2022/12/16 04:07:52;;;;;;;;;;;2.00;87.50;;;-151.14;100.00;62537.16;5015196;28;19921;-81
2022/12/16 04:24:17;;;;;;;;;;;2.00;87.40;;;-151.14;100.00;62537.16;5014563;28;19935;-80
2022/12/16 04:24:23;;;;;;;;;;;2.00;87.50;;;-151.14;100.00;62537.16;5034229;28;20116;-80
2022/12/16 04:30:17;;;;;;;;;;;2.00;88.30;;;18.10;100.00;62537.16;5018079;28;19921;-81
2022/12/16 04:32:25;;;;;;;;;;;2.00;87.50;;;-151.14;100.00;62537.16;5017761;28;19921;-80
2022/12/16 04:34:52;;;;;;;;;;;2.00;87.50;;;-151.14;100.00;62537.16;5033682;28;20216;-81
